sensor_id;sensor_type;location;lat;lon;timestamp;pressure;altitude;pressure_sealevel;temperature;humidity
11525;BME280;5819;49.648;8.330;2022-07-06T00:00:29;101003.63;;;19.36;61.75
11525;BME280;5819;49.648;8.330;2022-07-06T00:02:59;101004.88;;;19.30;62.24
11525;BME280;5819;49.648;8.330;2022-07-06T00:05:28;101009.22;;;19.31;62.27
11525;BME280;5819;49.648;8.330;2022-07-06T00:07:57;101001.41;;;19.17;62.44
11525;BME280;5819;49.648;8.330;2022-07-06T00:10:25;101009.72;;;19.11;62.88
11525;BME280;5819;49.648;8.330;2022-07-06T00:12:53;101019.00;;;19.04;62.92
11525;BME280;5819;49.648;8.330;2022-07-06T00:15:21;101019.69;;;18.81;64.14
11525;BME280;5819;49.648;8.330;2022-07-06T00:17:50;101020.06;;;18.75;64.68
11525;BME280;5819;49.648;8.330;2022-07-06T00:20:21;101022.81;;;18.73;64.80
11525;BME280;5819;49.648;8.330;2022-07-06T00:22:49;101024.97;;;18.81;64.16
11525;BME280;5819;49.648;8.330;2022-07-06T00:25:17;101026.31;;;18.86;64.58
11525;BME280;5819;49.648;8.330;2022-07-06T00:27:46;101026.75;;;18.80;64.12
11525;BME280;5819;49.648;8.330;2022-07-06T00:30:14;101027.25;;;18.73;64.75
11525;BME280;5819;49.648;8.330;2022-07-06T00:32:42;101025.31;;;18.89;64.20
11525;BME280;5819;49.648;8.330;2022-07-06T00:35:11;101030.56;;;18.89;64.24
11525;BME280;5819;49.648;8.330;2022-07-06T00:37:40;101036.53;;;18.78;64.62
11525;BME280;5819;49.648;8.330;2022-07-06T00:40:09;101032.56;;;18.58;65.60
11525;BME280;5819;49.648;8.330;2022-07-06T00:42:40;101038.50;;;18.48;66.55
11525;BME280;5819;49.648;8.330;2022-07-06T00:45:09;101029.31;;;18.27;67.28
11525;BME280;5819;49.648;8.330;2022-07-06T00:47:39;101032.72;;;18.14;68.23
11525;BME280;5819;49.648;8.330;2022-07-06T00:50:09;101029.34;;;17.98;68.51
11525;BME280;5819;49.648;8.330;2022-07-06T00:52:48;101033.66;;;18.13;68.32
11525;BME280;5819;49.648;8.330;2022-07-06T00:55:19;101028.44;;;18.40;66.58
11525;BME280;5819;49.648;8.330;2022-07-06T00:57:48;101033.94;;;18.37;66.77
11525;BME280;5819;49.648;8.330;2022-07-06T01:00:19;101035.31;;;18.43;66.75
11525;BME280;5819;49.648;8.330;2022-07-06T01:02:49;101032.56;;;18.58;65.75
11525;BME280;5819;49.648;8.330;2022-07-06T01:05:18;101029.66;;;18.49;66.32
11525;BME280;5819;49.648;8.330;2022-07-06T01:07:50;101032.03;;;18.39;66.47
11525;BME280;5819;49.648;8.330;2022-07-06T01:10:21;101036.78;;;18.20;67.92
11525;BME280;5819;49.648;8.330;2022-07-06T01:12:50;101027.47;;;18.14;67.62
11525;BME280;5819;49.648;8.330;2022-07-06T01:15:20;101027.38;;;18.16;67.41
11525;BME280;5819;49.648;8.330;2022-07-06T01:17:51;101034.38;;;18.30;67.08
11525;BME280;5819;49.648;8.330;2022-07-06T01:20:26;101030.25;;;18.40;66.24
11525;BME280;5819;49.648;8.330;2022-07-06T01:22:59;101029.00;;;18.45;66.06
11525;BME280;5819;49.648;8.330;2022-07-06T01:25:27;101026.84;;;18.38;66.59
11525;BME280;5819;49.648;8.330;2022-07-06T01:27:56;101027.81;;;18.22;66.49
11525;BME280;5819;49.648;8.330;2022-07-06T01:30:24;101024.84;;;18.00;67.46
11525;BME280;5819;49.648;8.330;2022-07-06T01:32:53;101018.19;;;18.09;67.09
11525;BME280;5819;49.648;8.330;2022-07-06T01:35:22;101023.03;;;18.15;66.55
11525;BME280;5819;49.648;8.330;2022-07-06T01:37:54;101022.47;;;18.24;65.89
11525;BME280;5819;49.648;8.330;2022-07-06T01:40:22;101022.69;;;18.07;66.21
11525;BME280;5819;49.648;8.330;2022-07-06T01:42:51;101031.38;;;18.21;65.41
11525;BME280;5819;49.648;8.330;2022-07-06T01:45:19;101032.56;;;18.03;66.52
11525;BME280;5819;49.648;8.330;2022-07-06T01:47:47;101028.63;;;17.96;67.32
11525;BME280;5819;49.648;8.330;2022-07-06T01:50:16;101025.69;;;17.87;66.73
11525;BME280;5819;49.648;8.330;2022-07-06T01:52:46;101016.56;;;17.78;67.78
11525;BME280;5819;49.648;8.330;2022-07-06T01:55:18;101015.44;;;17.82;67.18
11525;BME280;5819;49.648;8.330;2022-07-06T01:57:46;101011.22;;;17.65;66.99
11525;BME280;5819;49.648;8.330;2022-07-06T02:00:15;101014.41;;;17.70;66.90
11525;BME280;5819;49.648;8.330;2022-07-06T02:02:48;101017.81;;;17.72;66.51
11525;BME280;5819;49.648;8.330;2022-07-06T02:05:16;101022.78;;;17.63;66.91
11525;BME280;5819;49.648;8.330;2022-07-06T02:07:44;101010.00;;;17.57;67.43
11525;BME280;5819;49.648;8.330;2022-07-06T02:10:13;101013.47;;;17.57;66.90
11525;BME280;5819;49.648;8.330;2022-07-06T02:12:44;101018.69;;;17.43;66.86
11525;BME280;5819;49.648;8.330;2022-07-06T02:15:13;101015.88;;;17.32;67.47
11525;BME280;5819;49.648;8.330;2022-07-06T02:17:42;101013.03;;;17.65;67.34
11525;BME280;5819;49.648;8.330;2022-07-06T02:20:11;101020.47;;;17.43;66.93
11525;BME280;5819;49.648;8.330;2022-07-06T02:22:39;101023.38;;;17.38;67.20
11525;BME280;5819;49.648;8.330;2022-07-06T02:25:08;101020.25;;;17.61;66.54
11525;BME280;5819;49.648;8.330;2022-07-06T02:27:38;101032.28;;;17.65;66.57
11525;BME280;5819;49.648;8.330;2022-07-06T02:30:10;101027.38;;;17.45;67.10
11525;BME280;5819;49.648;8.330;2022-07-06T02:32:38;101033.28;;;17.49;66.93
11525;BME280;5819;49.648;8.330;2022-07-06T02:35:07;101037.00;;;17.30;67.74
11525;BME280;5819;49.648;8.330;2022-07-06T02:37:37;101039.16;;;17.24;67.56
11525;BME280;5819;49.648;8.330;2022-07-06T02:40:07;101042.13;;;17.18;68.06
11525;BME280;5819;49.648;8.330;2022-07-06T02:42:35;101038.81;;;17.44;66.72
11525;BME280;5819;49.648;8.330;2022-07-06T02:45:05;101043.16;;;17.45;66.35
11525;BME280;5819;49.648;8.330;2022-07-06T02:47:35;101040.13;;;17.37;66.58
11525;BME280;5819;49.648;8.330;2022-07-06T02:50:06;101027.25;;;17.47;66.69
11525;BME280;5819;49.648;8.330;2022-07-06T02:52:34;101036.72;;;17.35;67.58
11525;BME280;5819;49.648;8.330;2022-07-06T02:55:09;101038.94;;;17.13;68.82
11525;BME280;5819;49.648;8.330;2022-07-06T02:57:39;101047.66;;;17.13;68.07
11525;BME280;5819;49.648;8.330;2022-07-06T03:00:09;101043.44;;;17.11;68.69
11525;BME280;5819;49.648;8.330;2022-07-06T03:02:40;101050.25;;;16.99;69.38
11525;BME280;5819;49.648;8.330;2022-07-06T03:05:10;101053.22;;;16.93;69.67
11525;BME280;5819;49.648;8.330;2022-07-06T03:07:38;101053.06;;;16.96;69.47
11525;BME280;5819;49.648;8.330;2022-07-06T03:10:08;101061.44;;;17.03;68.66
11525;BME280;5819;49.648;8.330;2022-07-06T03:12:36;101066.44;;;17.21;69.02
11525;BME280;5819;49.648;8.330;2022-07-06T03:15:05;101068.69;;;17.13;68.14
11525;BME280;5819;49.648;8.330;2022-07-06T03:17:39;101078.59;;;17.24;67.24
11525;BME280;5819;49.648;8.330;2022-07-06T03:20:10;101075.56;;;17.16;67.98
11525;BME280;5819;49.648;8.330;2022-07-06T03:22:39;101076.88;;;17.09;68.34
11525;BME280;5819;49.648;8.330;2022-07-06T03:25:10;101071.88;;;17.04;68.32
11525;BME280;5819;49.648;8.330;2022-07-06T03:27:40;101077.00;;;17.06;67.79
11525;BME280;5819;49.648;8.330;2022-07-06T03:30:10;101068.72;;;16.98;68.72
11525;BME280;5819;49.648;8.330;2022-07-06T03:32:46;101073.69;;;16.88;69.02
11525;BME280;5819;49.648;8.330;2022-07-06T03:35:15;101068.47;;;17.02;68.50
11525;BME280;5819;49.648;8.330;2022-07-06T03:37:45;101076.69;;;17.12;67.54
11525;BME280;5819;49.648;8.330;2022-07-06T03:40:14;101075.63;;;16.84;68.82
11525;BME280;5819;49.648;8.330;2022-07-06T03:42:45;101074.34;;;16.92;68.22
11525;BME280;5819;49.648;8.330;2022-07-06T03:45:14;101076.13;;;16.91;68.81
11525;BME280;5819;49.648;8.330;2022-07-06T03:47:43;101082.22;;;16.92;68.13
11525;BME280;5819;49.648;8.330;2022-07-06T03:50:13;101079.69;;;16.90;68.58
11525;BME280;5819;49.648;8.330;2022-07-06T03:52:42;101081.72;;;16.85;68.58
11525;BME280;5819;49.648;8.330;2022-07-06T03:55:11;101082.97;;;16.94;68.49
11525;BME280;5819;49.648;8.330;2022-07-06T03:57:45;101081.44;;;16.90;68.79
11525;BME280;5819;49.648;8.330;2022-07-06T04:00:16;101085.13;;;16.87;68.74
11525;BME280;5819;49.648;8.330;2022-07-06T04:02:52;101089.53;;;16.71;69.66
11525;BME280;5819;49.648;8.330;2022-07-06T04:05:26;101086.97;;;16.85;69.32
11525;BME280;5819;49.648;8.330;2022-07-06T04:07:54;101091.66;;;16.80;69.34
11525;BME280;5819;49.648;8.330;2022-07-06T04:10:31;101091.66;;;16.80;69.48
11525;BME280;5819;49.648;8.330;2022-07-06T04:12:59;101100.81;;;16.73;70.04
11525;BME280;5819;49.648;8.330;2022-07-06T04:15:28;101091.06;;;16.75;69.76
11525;BME280;5819;49.648;8.330;2022-07-06T04:17:56;101109.94;;;16.81;69.73
11525;BME280;5819;49.648;8.330;2022-07-06T04:20:34;101108.34;;;16.79;69.49
11525;BME280;5819;49.648;8.330;2022-07-06T04:23:03;101106.91;;;16.73;70.06
11525;BME280;5819;49.648;8.330;2022-07-06T04:25:32;101114.97;;;16.70;70.38
11525;BME280;5819;49.648;8.330;2022-07-06T04:28:02;101108.78;;;16.71;70.10
11525;BME280;5819;49.648;8.330;2022-07-06T04:30:33;101115.13;;;16.83;70.74
11525;BME280;5819;49.648;8.330;2022-07-06T04:33:03;101120.31;;;16.84;69.51
11525;BME280;5819;49.648;8.330;2022-07-06T04:35:34;101113.25;;;16.69;70.13
11525;BME280;5819;49.648;8.330;2022-07-06T04:38:03;101121.06;;;16.71;70.40
11525;BME280;5819;49.648;8.330;2022-07-06T04:40:32;101120.31;;;16.84;69.32
11525;BME280;5819;49.648;8.330;2022-07-06T04:43:05;101121.13;;;16.85;69.61
11525;BME280;5819;49.648;8.330;2022-07-06T04:45:34;101119.28;;;16.87;70.04
11525;BME280;5819;49.648;8.330;2022-07-06T04:48:04;101114.66;;;17.06;69.64
11525;BME280;5819;49.648;8.330;2022-07-06T04:50:37;101119.63;;;16.97;69.52
11525;BME280;5819;49.648;8.330;2022-07-06T04:53:10;101118.84;;;16.95;69.48
11525;BME280;5819;49.648;8.330;2022-07-06T04:55:39;101114.00;;;17.03;69.14
11525;BME280;5819;49.648;8.330;2022-07-06T04:58:08;101119.28;;;17.33;68.86
11525;BME280;5819;49.648;8.330;2022-07-06T05:00:36;101119.09;;;17.36;67.63
11525;BME280;5819;49.648;8.330;2022-07-06T05:03:04;101122.53;;;17.22;68.41
11525;BME280;5819;49.648;8.330;2022-07-06T05:05:33;101131.41;;;17.35;67.24
11525;BME280;5819;49.648;8.330;2022-07-06T05:08:03;101133.31;;;17.17;67.76
11525;BME280;5819;49.648;8.330;2022-07-06T05:10:33;101135.88;;;17.03;68.88
11525;BME280;5819;49.648;8.330;2022-07-06T05:13:02;101138.44;;;17.35;67.30
11525;BME280;5819;49.648;8.330;2022-07-06T05:15:30;101140.75;;;17.70;66.40
11525;BME280;5819;49.648;8.330;2022-07-06T05:17:59;101131.78;;;17.29;67.43
11525;BME280;5819;49.648;8.330;2022-07-06T05:20:30;101140.16;;;17.36;68.32
11525;BME280;5819;49.648;8.330;2022-07-06T05:22:59;101134.53;;;17.42;68.53
11525;BME280;5819;49.648;8.330;2022-07-06T05:25:31;101136.44;;;17.24;68.22
11525;BME280;5819;49.648;8.330;2022-07-06T05:28:00;101141.53;;;17.27;68.13
11525;BME280;5819;49.648;8.330;2022-07-06T05:30:29;101145.75;;;17.45;68.51
11525;BME280;5819;49.648;8.330;2022-07-06T05:32:58;101146.25;;;17.96;66.01
11525;BME280;5819;49.648;8.330;2022-07-06T05:35:27;101151.28;;;17.70;66.70
11525;BME280;5819;49.648;8.330;2022-07-06T05:38:17;101156.25;;;17.45;66.92
11525;BME280;5819;49.648;8.330;2022-07-06T05:40:48;101155.63;;;17.56;67.04
11525;BME280;5819;49.648;8.330;2022-07-06T05:43:16;101161.00;;;17.84;66.33
11525;BME280;5819;49.648;8.330;2022-07-06T05:45:45;101159.97;;;18.15;64.76
11525;BME280;5819;49.648;8.330;2022-07-06T05:48:15;101160.44;;;18.07;64.97
11525;BME280;5819;49.648;8.330;2022-07-06T05:51:01;101154.91;;;18.12;65.39
11525;BME280;5819;49.648;8.330;2022-07-06T05:53:32;101153.75;;;17.88;66.91
11525;BME280;5819;49.648;8.330;2022-07-06T05:56:01;101152.53;;;18.50;63.50
11525;BME280;5819;49.648;8.330;2022-07-06T05:58:32;101148.53;;;18.16;65.09
11525;BME280;5819;49.648;8.330;2022-07-06T06:01:00;101149.25;;;18.18;64.38
11525;BME280;5819;49.648;8.330;2022-07-06T06:03:33;101146.06;;;18.55;63.91
11525;BME280;5819;49.648;8.330;2022-07-06T06:06:05;101150.22;;;18.59;63.54
11525;BME280;5819;49.648;8.330;2022-07-06T06:08:34;101155.38;;;18.18;63.50
11525;BME280;5819;49.648;8.330;2022-07-06T06:11:06;101154.72;;;18.15;64.69
11525;BME280;5819;49.648;8.330;2022-07-06T06:13:39;101152.44;;;18.51;63.58
11525;BME280;5819;49.648;8.330;2022-07-06T06:16:08;101152.44;;;18.51;63.41
11525;BME280;5819;49.648;8.330;2022-07-06T06:18:37;101153.22;;;18.25;63.87
11525;BME280;5819;49.648;8.330;2022-07-06T06:21:09;101154.53;;;18.46;63.38
11525;BME280;5819;49.648;8.330;2022-07-06T06:23:39;101152.66;;;18.48;63.15
11525;BME280;5819;49.648;8.330;2022-07-06T06:26:09;101154.19;;;18.52;63.44
11525;BME280;5819;49.648;8.330;2022-07-06T06:28:39;101160.06;;;18.42;62.89
11525;BME280;5819;49.648;8.330;2022-07-06T06:31:08;101156.69;;;18.40;63.58
11525;BME280;5819;49.648;8.330;2022-07-06T06:33:36;101157.53;;;18.40;63.26
11525;BME280;5819;49.648;8.330;2022-07-06T06:36:05;101155.28;;;18.77;62.57
11525;BME280;5819;49.648;8.330;2022-07-06T06:38:34;101165.41;;;18.83;62.22
11525;BME280;5819;49.648;8.330;2022-07-06T06:41:02;101166.78;;;18.61;62.86
11525;BME280;5819;49.648;8.330;2022-07-06T06:43:32;101170.31;;;18.89;62.63
11525;BME280;5819;49.648;8.330;2022-07-06T06:46:12;101168.94;;;18.69;63.10
11525;BME280;5819;49.648;8.330;2022-07-06T06:48:41;101175.50;;;18.76;62.27
11525;BME280;5819;49.648;8.330;2022-07-06T06:51:09;101172.59;;;18.66;61.35
11525;BME280;5819;49.648;8.330;2022-07-06T06:53:38;101177.53;;;18.99;61.18
11525;BME280;5819;49.648;8.330;2022-07-06T06:56:06;101175.53;;;19.03;60.68
11525;BME280;5819;49.648;8.330;2022-07-06T06:58:37;101173.25;;;19.11;61.27
11525;BME280;5819;49.648;8.330;2022-07-06T07:01:29;101180.81;;;19.03;61.21
11525;BME280;5819;49.648;8.330;2022-07-06T07:03:57;101176.53;;;18.88;60.98
11525;BME280;5819;49.648;8.330;2022-07-06T07:06:26;101178.31;;;19.14;59.22
11525;BME280;5819;49.648;8.330;2022-07-06T07:08:55;101186.34;;;19.12;60.00
11525;BME280;5819;49.648;8.330;2022-07-06T07:11:24;101185.50;;;19.12;59.61
11525;BME280;5819;49.648;8.330;2022-07-06T07:13:54;101174.16;;;19.51;59.17
11525;BME280;5819;49.648;8.330;2022-07-06T07:16:22;101185.06;;;19.59;58.93
11525;BME280;5819;49.648;8.330;2022-07-06T07:18:52;101185.66;;;19.50;58.42
11525;BME280;5819;49.648;8.330;2022-07-06T07:21:20;101179.31;;;20.04;58.17
11525;BME280;5819;49.648;8.330;2022-07-06T07:23:49;101189.47;;;19.98;57.47
11525;BME280;5819;49.648;8.330;2022-07-06T07:26:18;101181.22;;;20.15;57.67
11525;BME280;5819;49.648;8.330;2022-07-06T07:28:46;101183.88;;;20.40;56.37
11525;BME280;5819;49.648;8.330;2022-07-06T07:31:16;101183.97;;;20.39;56.00
11525;BME280;5819;49.648;8.330;2022-07-06T07:33:44;101181.16;;;20.29;55.97
11525;BME280;5819;49.648;8.330;2022-07-06T07:36:12;101185.13;;;20.47;56.25
11525;BME280;5819;49.648;8.330;2022-07-06T07:38:40;101182.28;;;20.50;54.85
11525;BME280;5819;49.648;8.330;2022-07-06T07:41:08;101186.19;;;20.58;55.04
11525;BME280;5819;49.648;8.330;2022-07-06T07:43:38;101185.09;;;20.73;54.99
11525;BME280;5819;49.648;8.330;2022-07-06T07:46:06;101183.41;;;20.72;54.58
11525;BME280;5819;49.648;8.330;2022-07-06T07:48:36;101188.81;;;20.70;54.79
11525;BME280;5819;49.648;8.330;2022-07-06T07:51:05;101196.69;;;20.83;52.97
11525;BME280;5819;49.648;8.330;2022-07-06T07:53:33;101188.22;;;21.27;51.38
11525;BME280;5819;49.648;8.330;2022-07-06T07:56:01;101186.41;;;21.51;51.11
11525;BME280;5819;49.648;8.330;2022-07-06T07:58:30;101179.19;;;21.53;51.96
11525;BME280;5819;49.648;8.330;2022-07-06T08:00:58;101186.06;;;21.90;51.01
11525;BME280;5819;49.648;8.330;2022-07-06T08:03:26;101175.75;;;21.75;50.98
11525;BME280;5819;49.648;8.330;2022-07-06T08:05:56;101174.53;;;21.57;51.64
11525;BME280;5819;49.648;8.330;2022-07-06T08:08:26;101176.28;;;21.21;51.56
11525;BME280;5819;49.648;8.330;2022-07-06T08:10:55;101169.88;;;21.00;54.50
11525;BME280;5819;49.648;8.330;2022-07-06T08:13:44;101175.34;;;21.22;52.75
11525;BME280;5819;49.648;8.330;2022-07-06T08:16:13;101174.44;;;21.34;51.74
11525;BME280;5819;49.648;8.330;2022-07-06T08:18:42;101174.63;;;21.90;50.67
11525;BME280;5819;49.648;8.330;2022-07-06T08:21:12;101170.91;;;21.92;49.84
11525;BME280;5819;49.648;8.330;2022-07-06T08:23:55;101172.56;;;21.82;49.99
11525;BME280;5819;49.648;8.330;2022-07-06T08:26:27;101170.13;;;21.79;50.25
11525;BME280;5819;49.648;8.330;2022-07-06T08:28:55;101173.09;;;21.64;49.76
11525;BME280;5819;49.648;8.330;2022-07-06T08:31:24;101172.31;;;21.74;48.71
11525;BME280;5819;49.648;8.330;2022-07-06T08:34:13;101179.22;;;21.64;49.93
11525;BME280;5819;49.648;8.330;2022-07-06T08:36:43;101182.19;;;21.83;48.10
11525;BME280;5819;49.648;8.330;2022-07-06T08:39:11;101177.81;;;22.17;49.08
11525;BME280;5819;49.648;8.330;2022-07-06T08:41:41;101174.19;;;22.07;49.12
11525;BME280;5819;49.648;8.330;2022-07-06T08:44:10;101186.41;;;21.51;49.82
11525;BME280;5819;49.648;8.330;2022-07-06T08:46:39;101193.75;;;21.24;49.72
11525;BME280;5819;49.648;8.330;2022-07-06T08:49:08;101182.53;;;21.20;49.67
11525;BME280;5819;49.648;8.330;2022-07-06T08:51:37;101186.84;;;21.69;50.12
11525;BME280;5819;49.648;8.330;2022-07-06T08:54:07;101199.22;;;21.92;48.90
11525;BME280;5819;49.648;8.330;2022-07-06T08:56:35;101194.34;;;22.32;47.48
11525;BME280;5819;49.648;8.330;2022-07-06T08:59:06;101188.19;;;22.87;46.21
11525;BME280;5819;49.648;8.330;2022-07-06T09:01:35;101185.38;;;23.00;46.01
11525;BME280;5819;49.648;8.330;2022-07-06T09:04:06;101190.91;;;23.19;45.22
11525;BME280;5819;49.648;8.330;2022-07-06T09:06:35;101184.19;;;23.04;46.74
11525;BME280;5819;49.648;8.330;2022-07-06T09:09:07;101188.06;;;22.44;48.19
11525;BME280;5819;49.648;8.330;2022-07-06T09:11:35;101179.47;;;22.07;47.79
11525;BME280;5819;49.648;8.330;2022-07-06T09:14:07;101181.47;;;22.72;47.23
11525;BME280;5819;49.648;8.330;2022-07-06T09:16:35;101176.16;;;22.72;45.60
11525;BME280;5819;49.648;8.330;2022-07-06T09:19:06;101175.50;;;23.02;46.37
11525;BME280;5819;49.648;8.330;2022-07-06T09:21:35;101179.41;;;22.53;44.98
11525;BME280;5819;49.648;8.330;2022-07-06T09:24:09;101182.28;;;22.95;44.90
11525;BME280;5819;49.648;8.330;2022-07-06T09:26:38;101175.97;;;22.96;45.39
11525;BME280;5819;49.648;8.330;2022-07-06T09:29:08;101175.19;;;22.51;45.59
11525;BME280;5819;49.648;8.330;2022-07-06T09:31:37;101177.09;;;22.49;45.21
11525;BME280;5819;49.648;8.330;2022-07-06T09:34:06;101175.97;;;22.96;44.98
11525;BME280;5819;49.648;8.330;2022-07-06T09:36:42;101175.25;;;23.05;45.13
11525;BME280;5819;49.648;8.330;2022-07-06T09:39:20;101171.28;;;23.31;46.05
11525;BME280;5819;49.648;8.330;2022-07-06T09:41:50;101162.84;;;23.90;44.75
11525;BME280;5819;49.648;8.330;2022-07-06T09:44:21;101172.63;;;24.40;43.03
11525;BME280;5819;49.648;8.330;2022-07-06T09:46:52;101168.13;;;24.71;41.13
11525;BME280;5819;49.648;8.330;2022-07-06T09:49:21;101170.38;;;24.36;41.72
11525;BME280;5819;49.648;8.330;2022-07-06T09:51:52;101168.53;;;26.39;38.52
11525;BME280;5819;49.648;8.330;2022-07-06T09:54:22;101169.53;;;27.81;34.91
11525;BME280;5819;49.648;8.330;2022-07-06T09:56:52;101171.13;;;28.44;33.43
11525;BME280;5819;49.648;8.330;2022-07-06T09:59:22;101164.53;;;28.04;34.33
11525;BME280;5819;49.648;8.330;2022-07-06T10:01:52;101166.25;;;27.87;35.44
11525;BME280;5819;49.648;8.330;2022-07-06T10:04:22;101169.41;;;28.09;35.07
11525;BME280;5819;49.648;8.330;2022-07-06T10:06:51;101171.09;;;28.10;33.54
11525;BME280;5819;49.648;8.330;2022-07-06T10:09:24;101174.13;;;29.33;32.73
11525;BME280;5819;49.648;8.330;2022-07-06T10:11:55;101165.41;;;29.71;31.80
11525;BME280;5819;49.648;8.330;2022-07-06T10:14:25;101173.19;;;30.37;31.24
11525;BME280;5819;49.648;8.330;2022-07-06T10:16:55;101175.59;;;30.94;28.83
11525;BME280;5819;49.648;8.330;2022-07-06T10:19:25;101167.97;;;30.36;29.88
11525;BME280;5819;49.648;8.330;2022-07-06T10:21:56;101156.47;;;30.11;30.27
11525;BME280;5819;49.648;8.330;2022-07-06T10:24:29;101158.69;;;30.54;29.12
11525;BME280;5819;49.648;8.330;2022-07-06T10:27:01;101162.56;;;30.52;28.36
11525;BME280;5819;49.648;8.330;2022-07-06T10:29:30;101157.16;;;30.60;28.19
11525;BME280;5819;49.648;8.330;2022-07-06T10:32:00;101150.59;;;30.62;28.35
11525;BME280;5819;49.648;8.330;2022-07-06T10:34:28;101157.56;;;30.41;28.91
11525;BME280;5819;49.648;8.330;2022-07-06T10:36:57;101154.88;;;31.10;28.29
11525;BME280;5819;49.648;8.330;2022-07-06T10:39:34;101146.13;;;30.78;28.45
11525;BME280;5819;49.648;8.330;2022-07-06T10:42:39;101151.97;;;31.95;26.71
11525;BME280;5819;49.648;8.330;2022-07-06T10:45:10;101147.16;;;31.07;28.21
11525;BME280;5819;49.648;8.330;2022-07-06T10:47:40;101142.13;;;31.73;27.56
11525;BME280;5819;49.648;8.330;2022-07-06T10:50:08;101149.00;;;31.90;28.37
11525;BME280;5819;49.648;8.330;2022-07-06T10:52:52;101141.72;;;30.93;28.37
11525;BME280;5819;49.648;8.330;2022-07-06T10:55:32;101142.03;;;30.20;30.38
11525;BME280;5819;49.648;8.330;2022-07-06T10:58:02;101144.34;;;31.69;29.43
11525;BME280;5819;49.648;8.330;2022-07-06T11:00:50;101143.81;;;31.88;29.69
11525;BME280;5819;49.648;8.330;2022-07-06T11:03:33;101142.00;;;32.18;28.78
11525;BME280;5819;49.648;8.330;2022-07-06T11:06:05;101143.31;;;32.37;28.29
11525;BME280;5819;49.648;8.330;2022-07-06T11:08:51;101145.53;;;32.33;28.30
11525;BME280;5819;49.648;8.330;2022-07-06T11:11:24;101151.00;;;33.26;27.23
11525;BME280;5819;49.648;8.330;2022-07-06T11:13:55;101134.50;;;33.64;26.55
11525;BME280;5819;49.648;8.330;2022-07-06T11:16:25;101137.28;;;31.53;29.57
11525;BME280;5819;49.648;8.330;2022-07-06T11:19:05;101149.06;;;31.67;28.06
11525;BME280;5819;49.648;8.330;2022-07-06T11:21:37;101143.56;;;32.27;27.23
11525;BME280;5819;49.648;8.330;2022-07-06T11:24:07;101145.97;;;32.52;27.06
11525;BME280;5819;49.648;8.330;2022-07-06T11:26:38;101140.72;;;33.36;27.73
11525;BME280;5819;49.648;8.330;2022-07-06T11:29:08;101137.59;;;32.76;26.34
11525;BME280;5819;49.648;8.330;2022-07-06T11:31:38;101129.72;;;32.95;26.56
11525;BME280;5819;49.648;8.330;2022-07-06T11:34:09;101133.75;;;33.06;26.15
11525;BME280;5819;49.648;8.330;2022-07-06T11:36:38;101141.16;;;33.19;26.03
11525;BME280;5819;49.648;8.330;2022-07-06T11:39:12;101142.53;;;32.58;25.99
11525;BME280;5819;49.648;8.330;2022-07-06T11:41:42;101144.75;;;31.81;26.82
11525;BME280;5819;49.648;8.330;2022-07-06T11:44:17;101136.13;;;31.25;27.28
11525;BME280;5819;49.648;8.330;2022-07-06T11:46:46;101127.13;;;31.93;26.46
11525;BME280;5819;49.648;8.330;2022-07-06T11:49:15;101131.53;;;31.86;26.78
11525;BME280;5819;49.648;8.330;2022-07-06T11:51:46;101135.56;;;32.63;26.71
11525;BME280;5819;49.648;8.330;2022-07-06T11:54:16;101131.47;;;31.94;27.69
11525;BME280;5819;49.648;8.330;2022-07-06T11:56:50;101120.25;;;31.30;27.15
11525;BME280;5819;49.648;8.330;2022-07-06T11:59:24;101122.78;;;31.54;28.29
11525;BME280;5819;49.648;8.330;2022-07-06T12:02:00;101122.00;;;32.42;27.17
11525;BME280;5819;49.648;8.330;2022-07-06T12:04:29;101131.19;;;32.03;27.83
11525;BME280;5819;49.648;8.330;2022-07-06T12:07:00;101118.19;;;33.23;27.26
11525;BME280;5819;49.648;8.330;2022-07-06T12:09:30;101113.41;;;31.28;28.81
11525;BME280;5819;49.648;8.330;2022-07-06T12:12:01;101117.78;;;30.98;28.43
11525;BME280;5819;49.648;8.330;2022-07-06T12:14:34;101119.47;;;31.67;27.59
11525;BME280;5819;49.648;8.330;2022-07-06T12:17:03;101114.41;;;32.45;27.31
11525;BME280;5819;49.648;8.330;2022-07-06T12:19:34;101111.13;;;32.65;27.45
11525;BME280;5819;49.648;8.330;2022-07-06T12:22:03;101102.41;;;31.15;27.84
11525;BME280;5819;49.648;8.330;2022-07-06T12:24:33;101102.88;;;30.95;27.39
11525;BME280;5819;49.648;8.330;2022-07-06T12:27:12;101096.66;;;31.18;28.67
11525;BME280;5819;49.648;8.330;2022-07-06T12:29:41;101106.22;;;31.43;28.18
11525;BME280;5819;49.648;8.330;2022-07-06T12:32:14;101101.47;;;31.68;28.17
11525;BME280;5819;49.648;8.330;2022-07-06T12:34:43;101098.47;;;31.25;29.07
11525;BME280;5819;49.648;8.330;2022-07-06T12:37:12;101099.66;;;31.45;28.79
11525;BME280;5819;49.648;8.330;2022-07-06T12:39:42;101088.06;;;31.45;28.21
11525;BME280;5819;49.648;8.330;2022-07-06T12:42:13;101090.44;;;30.94;28.91
11525;BME280;5819;49.648;8.330;2022-07-06T12:44:47;101091.00;;;31.50;28.54
11525;BME280;5819;49.648;8.330;2022-07-06T12:47:18;101091.19;;;32.00;28.55
11525;BME280;5819;49.648;8.330;2022-07-06T12:49:48;101099.06;;;31.50;28.20
11525;BME280;5819;49.648;8.330;2022-07-06T12:52:17;101082.41;;;31.17;28.07
11525;BME280;5819;49.648;8.330;2022-07-06T12:54:47;101088.13;;;31.37;29.42
11525;BME280;5819;49.648;8.330;2022-07-06T12:57:18;101094.88;;;31.10;28.45
11525;BME280;5819;49.648;8.330;2022-07-06T12:59:55;101090.75;;;30.77;29.54
11525;BME280;5819;49.648;8.330;2022-07-06T13:02:25;101084.31;;;31.08;28.70
11525;BME280;5819;49.648;8.330;2022-07-06T13:05:16;101100.31;;;31.02;27.47
11525;BME280;5819;49.648;8.330;2022-07-06T13:07:45;101096.75;;;30.79;28.02
11525;BME280;5819;49.648;8.330;2022-07-06T13:10:15;101091.56;;;31.08;27.84
11525;BME280;5819;49.648;8.330;2022-07-06T13:12:45;101086.47;;;31.13;27.81
11525;BME280;5819;49.648;8.330;2022-07-06T13:15:13;101080.72;;;30.93;28.88
11525;BME280;5819;49.648;8.330;2022-07-06T13:17:42;101077.19;;;30.31;29.69